createdAt,value
2022-08-01T00:00:39.862Z,100.00
2022-08-01T00:01:44.063Z,100.00
2022-08-01T00:02:45.918Z,100.00
2022-08-01T00:03:47.583Z,100.00
2022-08-01T00:04:49.262Z,100.00
2022-08-01T00:05:50.891Z,100.00
2022-08-01T00:06:52.558Z,100.00
2022-08-01T00:07:54.269Z,100.00
2022-08-01T00:08:56.334Z,100.00
2022-08-01T00:09:57.973Z,100.00
2022-08-01T00:11:02.781Z,100.00
2022-08-01T00:12:05.881Z,100.00
2022-08-01T00:13:07.523Z,100.00
2022-08-01T00:14:10.593Z,100.00
2022-08-01T00:15:15.080Z,100.00
2022-08-01T00:16:16.884Z,100.00
2022-08-01T00:17:18.630Z,100.00
2022-08-01T00:18:20.289Z,100.00
2022-08-01T00:19:21.942Z,100.00
2022-08-01T00:20:23.610Z,100.00
2022-08-01T00:21:25.294Z,100.00
2022-08-01T00:22:27.291Z,100.00
2022-08-01T00:23:28.979Z,100.00
2022-08-01T00:24:30.708Z,100.00
2022-08-01T00:25:33.955Z,100.00
2022-08-01T00:26:36.315Z,100.00
2022-08-01T00:27:38.103Z,100.00
2022-08-01T00:28:40.487Z,100.00
2022-08-01T00:30:09.801Z,100.00
2022-08-01T00:31:03.934Z,100.00
2022-08-01T00:32:06.169Z,100.00
2022-08-01T00:33:08.075Z,100.00
2022-08-01T00:34:09.741Z,100.00
2022-08-01T00:35:11.634Z,100.00
2022-08-01T00:36:13.459Z,100.00
2022-08-01T00:37:16.209Z,100.00
2022-08-01T00:38:17.918Z,100.00
2022-08-01T00:39:19.585Z,100.00
2022-08-01T00:40:21.337Z,100.00
2022-08-01T00:41:23.022Z,100.00
2022-08-01T00:42:24.771Z,100.00
2022-08-01T00:43:26.554Z,100.00
2022-08-01T00:44:28.299Z,100.00
2022-08-01T00:45:30.039Z,100.00
2022-08-01T00:46:32.406Z,100.00
2022-08-01T00:47:34.133Z,100.00
2022-08-01T00:48:35.992Z,100.00
2022-08-01T00:49:37.804Z,100.00
2022-08-01T00:50:39.821Z,100.00
2022-08-01T00:51:41.815Z,100.00
2022-08-01T00:52:51.526Z,100.00
2022-08-01T00:53:54.036Z,100.00
2022-08-01T00:54:56.817Z,100.00
2022-08-01T00:55:58.541Z,100.00
2022-08-01T00:57:01.071Z,100.00
2022-08-01T00:58:05.703Z,100.00
2022-08-01T00:59:09.468Z,100.00
2022-08-01T01:00:12.259Z,100.00
2022-08-01T01:01:14.162Z,100.00
2022-08-01T01:02:16.073Z,100.00
2022-08-01T01:03:17.801Z,100.00
2022-08-01T01:04:19.477Z,100.00
2022-08-01T01:05:21.792Z,100.00
2022-08-01T01:06:29.262Z,100.00
2022-08-01T01:07:49.947Z,100.00
2022-08-01T01:09:17.237Z,100.00
2022-08-01T01:10:22.902Z,100.00
2022-08-01T01:11:36.225Z,100.00
2022-08-01T01:12:53.190Z,100.00
2022-08-01T01:14:06.133Z,100.00
2022-08-01T01:15:12.651Z,100.00
2022-08-01T01:16:18.374Z,100.00
2022-08-01T01:17:31.244Z,100.00
2022-08-01T01:19:01.522Z,100.00
2022-08-01T01:20:06.875Z,100.00
2022-08-01T01:21:17.440Z,100.00
2022-08-01T01:22:47.224Z,100.00
2022-08-01T01:24:22.957Z,100.00
2022-08-01T01:25:50.811Z,100.00
2022-08-01T01:27:19.181Z,100.00
2022-08-01T01:29:22.529Z,100.00
2022-08-01T01:30:29.084Z,100.00
2022-08-01T01:31:38.596Z,100.00
2022-08-01T01:32:45.845Z,100.00
2022-08-01T01:33:50.644Z,100.00
2022-08-01T01:34:56.394Z,100.00
2022-08-01T01:36:04.277Z,100.00
2022-08-01T01:37:18.669Z,100.00
2022-08-01T01:38:34.784Z,100.00
2022-08-01T01:39:39.528Z,100.00
2022-08-01T01:40:49.865Z,100.00
2022-08-01T01:41:55.727Z,100.00
2022-08-01T01:42:58.370Z,100.00
2022-08-01T01:44:02.959Z,100.00
2022-08-01T01:45:08.318Z,100.00
2022-08-01T01:46:13.441Z,100.00
2022-08-01T01:47:18.089Z,100.00
2022-08-01T01:48:22.387Z,100.00
2022-08-01T01:49:27.909Z,100.00
2022-08-01T01:50:31.605Z,100.00
2022-08-01T01:51:34.579Z,100.00
2022-08-01T01:52:39.056Z,100.00
2022-08-01T01:53:42.590Z,100.00
2022-08-01T01:54:49.707Z,100.00
2022-08-01T01:55:54.678Z,100.00
2022-08-01T01:57:00.659Z,100.00
2022-08-01T01:58:02.686Z,100.00
2022-08-01T01:59:05.573Z,100.00
2022-08-01T02:00:09.529Z,100.00
2022-08-01T02:01:14.626Z,100.00
2022-08-01T02:02:18.745Z,100.00
2022-08-01T02:03:23.050Z,100.00
2022-08-01T02:04:28.081Z,100.00
2022-08-01T02:05:31.012Z,100.00
2022-08-01T02:06:34.577Z,100.00
2022-08-01T02:07:39.645Z,100.00
2022-08-01T02:08:44.928Z,100.00
2022-08-01T02:09:48.548Z,100.00
2022-08-01T02:11:13.058Z,100.00
2022-08-01T02:12:18.678Z,100.00
2022-08-01T02:13:21.414Z,100.00
2022-08-01T02:14:24.787Z,100.00
2022-08-01T02:15:29.043Z,100.00
2022-08-01T02:16:35.958Z,100.00
2022-08-01T02:17:44.663Z,100.00
2022-08-01T02:18:47.012Z,100.00
2022-08-01T02:19:49.193Z,100.00
2022-08-01T02:20:54.490Z,100.00
2022-08-01T02:22:08.908Z,100.00
2022-08-01T02:23:14.209Z,100.00
2022-08-01T02:24:30.606Z,100.00
2022-08-01T02:25:39.622Z,100.00
2022-08-01T02:27:07.647Z,100.00
2022-08-01T02:28:33.495Z,100.00
2022-08-01T02:29:43.024Z,100.00
2022-08-01T02:30:49.524Z,100.00
2022-08-01T02:31:55.609Z,100.00
2022-08-01T02:33:15.794Z,100.00
2022-08-01T02:34:20.779Z,100.00
2022-08-01T02:35:29.103Z,100.00
2022-08-01T02:36:36.285Z,100.00
2022-08-01T02:37:41.928Z,100.00
2022-08-01T02:38:48.027Z,100.00
2022-08-01T02:39:53.700Z,100.00
2022-08-01T02:41:00.826Z,100.00
2022-08-01T02:42:07.938Z,100.00
2022-08-01T02:43:11.809Z,100.00
2022-08-01T02:44:24.558Z,100.00
2022-08-01T02:45:27.826Z,100.00
2022-08-01T02:46:52.726Z,100.00
2022-08-01T02:48:02.808Z,100.00
2022-08-01T02:49:08.788Z,100.00
2022-08-01T02:50:13.459Z,100.00
2022-08-01T02:51:18.738Z,100.00
2022-08-01T02:52:24.205Z,100.00
2022-08-01T02:53:39.126Z,100.00
2022-08-01T02:54:51.088Z,100.00
2022-08-01T02:55:54.955Z,100.00
2022-08-01T02:56:58.477Z,100.00
2022-08-01T02:58:02.896Z,100.00
2022-08-01T02:59:10.165Z,100.00
2022-08-01T03:00:12.534Z,100.00
2022-08-01T03:01:19.972Z,100.00
2022-08-01T03:02:25.228Z,100.00
2022-08-01T03:03:27.266Z,100.00
2022-08-01T03:04:29.687Z,100.00
2022-08-01T03:05:33.966Z,100.00
2022-08-01T03:06:38.345Z,100.00
2022-08-01T03:07:42.688Z,100.00
2022-08-01T03:08:47.574Z,100.00
2022-08-01T03:09:51.677Z,100.00
2022-08-01T03:10:56.755Z,100.00
2022-08-01T03:12:05.539Z,100.00
2022-08-01T03:13:10.588Z,100.00
2022-08-01T03:14:15.245Z,100.00
2022-08-01T03:15:19.702Z,100.00
2022-08-01T03:16:25.211Z,100.00
2022-08-01T03:17:31.358Z,100.00
2022-08-01T03:18:36.081Z,100.00
2022-08-01T03:19:40.183Z,100.00
2022-08-01T03:20:44.510Z,100.00
2022-08-01T03:21:49.429Z,100.00
2022-08-01T03:22:54.408Z,100.00
2022-08-01T03:24:01.536Z,100.00
2022-08-01T03:25:04.526Z,100.00
2022-08-01T03:26:07.341Z,100.00
2022-08-01T03:27:10.111Z,100.00
2022-08-01T03:28:16.988Z,100.00
2022-08-01T03:29:26.478Z,100.00
2022-08-01T03:30:30.835Z,100.00
2022-08-01T03:31:36.307Z,100.00
2022-08-01T03:32:38.267Z,100.00
2022-08-01T03:33:40.008Z,100.00
2022-08-01T03:34:41.936Z,100.00
2022-08-01T03:35:55.231Z,100.00
2022-08-01T03:37:28.189Z,100.00
2022-08-01T03:38:36.573Z,100.00
2022-08-01T03:39:45.326Z,100.00
2022-08-01T03:41:12.696Z,100.00
2022-08-01T03:42:20.128Z,100.00
2022-08-01T03:43:37.613Z,100.00
2022-08-01T03:44:42.290Z,100.00
2022-08-01T03:45:54.201Z,100.00
2022-08-01T03:47:02.552Z,100.00
2022-08-01T03:48:14.224Z,100.00
2022-08-01T03:49:22.592Z,100.00
2022-08-01T03:50:26.055Z,100.00
2022-08-01T03:51:30.627Z,100.00
2022-08-01T03:52:35.910Z,100.00
2022-08-01T03:53:42.462Z,100.00
2022-08-01T03:54:54.433Z,100.00
2022-08-01T03:55:59.577Z,100.00
2022-08-01T03:57:02.875Z,100.00
2022-08-01T03:58:09.847Z,100.00
2022-08-01T03:59:13.059Z,100.00
2022-08-01T04:00:19.284Z,100.00
2022-08-01T04:01:21.940Z,100.00
2022-08-01T04:02:24.579Z,100.00
2022-08-01T04:03:26.996Z,100.00
2022-08-01T04:04:30.062Z,100.00
2022-08-01T04:05:32.379Z,100.00
2022-08-01T04:06:34.129Z,100.00
2022-08-01T04:07:40.224Z,100.00
2022-08-01T04:08:42.456Z,100.00
2022-08-01T04:09:44.269Z,100.00
2022-08-01T04:10:46.060Z,100.00
2022-08-01T04:11:48.482Z,100.00
2022-08-01T04:12:50.426Z,100.00
2022-08-01T04:13:54.158Z,100.00
2022-08-01T04:14:57.097Z,100.00
2022-08-01T04:15:58.729Z,100.00
2022-08-01T04:17:00.361Z,100.00
2022-08-01T04:18:02.065Z,100.00
2022-08-01T04:19:04.209Z,100.00
2022-08-01T04:20:06.444Z,100.00
2022-08-01T04:21:08.673Z,100.00
2022-08-01T04:22:16.560Z,100.00
2022-08-01T04:23:27.032Z,100.00
2022-08-01T04:24:32.651Z,100.00
2022-08-01T04:25:38.121Z,100.00
2022-08-01T04:26:42.712Z,100.00
2022-08-01T04:27:51.966Z,100.00
2022-08-01T04:28:56.388Z,100.00
2022-08-01T04:30:00.328Z,100.00
2022-08-01T04:31:06.614Z,100.00
2022-08-01T04:32:13.861Z,100.00
2022-08-01T04:33:18.854Z,100.00
2022-08-01T04:34:25.375Z,100.00
2022-08-01T04:36:01.888Z,100.00
2022-08-01T04:36:55.458Z,100.00
2022-08-01T04:38:00.321Z,100.00
2022-08-01T04:39:04.870Z,100.00
2022-08-01T04:40:09.540Z,100.00
2022-08-01T04:41:14.657Z,100.00
2022-08-01T04:42:17.217Z,100.00
2022-08-01T04:43:27.797Z,100.00
2022-08-01T04:44:32.578Z,100.00
2022-08-01T04:45:37.368Z,100.00
2022-08-01T04:46:41.311Z,100.00
2022-08-01T04:47:44.696Z,100.00
2022-08-01T04:48:47.194Z,100.00
2022-08-01T04:49:49.831Z,100.00
2022-08-01T04:50:52.577Z,100.00
2022-08-01T04:51:58.717Z,100.00
2022-08-01T04:53:00.392Z,100.00
2022-08-01T04:54:02.732Z,100.00
2022-08-01T04:55:07.176Z,100.00
2022-08-01T04:56:09.121Z,100.00
2022-08-01T04:57:10.830Z,100.00
2022-08-01T04:58:17.676Z,100.00
2022-08-01T04:59:39.650Z,100.00
2022-08-01T05:00:41.562Z,100.00
2022-08-01T05:01:43.251Z,100.00
2022-08-01T05:02:45.088Z,100.00
2022-08-01T05:03:46.762Z,100.00
2022-08-01T05:04:48.419Z,100.00
2022-08-01T05:05:50.080Z,100.00
2022-08-01T05:06:51.731Z,100.00
2022-08-01T05:07:53.386Z,100.00
2022-08-01T05:08:55.265Z,100.00
2022-08-01T05:09:56.940Z,100.00
2022-08-01T05:10:58.645Z,100.00
2022-08-01T05:12:02.868Z,100.00
2022-08-01T05:13:04.763Z,100.00
2022-08-01T05:14:07.576Z,100.00
2022-08-01T05:15:15.121Z,100.00
2022-08-01T05:16:17.950Z,100.00
2022-08-01T05:17:19.628Z,100.00
2022-08-01T05:18:26.421Z,100.00
2022-08-01T05:19:32.843Z,100.00
2022-08-01T05:20:34.604Z,100.00
2022-08-01T05:21:38.331Z,100.00
2022-08-01T05:22:40.460Z,100.00
2022-08-01T05:23:43.567Z,100.00
2022-08-01T05:24:45.472Z,100.00
2022-08-01T05:25:56.119Z,100.00
2022-08-01T05:27:00.891Z,100.00
2022-08-01T05:28:05.065Z,100.00
2022-08-01T05:29:07.859Z,100.00
2022-08-01T05:30:11.086Z,100.00
2022-08-01T05:31:12.739Z,100.00
2022-08-01T05:32:14.545Z,100.00
2022-08-01T05:33:16.219Z,100.00
2022-08-01T05:34:17.926Z,100.00
2022-08-01T05:35:19.577Z,100.00
2022-08-01T05:36:21.238Z,100.00
2022-08-01T05:37:22.911Z,100.00
2022-08-01T05:38:24.536Z,100.00
2022-08-01T05:39:26.214Z,100.00
2022-08-01T05:40:27.890Z,100.00
2022-08-01T05:41:29.696Z,100.00
2022-08-01T05:42:31.430Z,100.00
2022-08-01T05:43:33.080Z,100.00
2022-08-01T05:44:34.740Z,100.00
2022-08-01T05:45:36.418Z,100.00
2022-08-01T05:46:39.113Z,100.00
2022-08-01T05:47:42.843Z,100.00
2022-08-01T05:48:44.858Z,100.00
2022-08-01T05:49:47.008Z,100.00
2022-08-01T05:50:48.898Z,100.00
2022-08-01T05:51:50.566Z,100.00
2022-08-01T05:52:52.205Z,100.00
2022-08-01T05:53:54.406Z,100.00
2022-08-01T05:54:56.004Z,100.00
2022-08-01T05:55:57.702Z,100.00
2022-08-01T05:57:02.543Z,100.00
2022-08-01T05:58:04.462Z,100.00
2022-08-01T05:59:06.107Z,100.00
2022-08-01T06:00:08.512Z,100.00
2022-08-01T06:01:13.497Z,100.00
2022-08-01T06:02:15.288Z,100.00
2022-08-01T06:03:17.020Z,100.00
2022-08-01T06:04:18.763Z,100.00
2022-08-01T06:05:20.488Z,100.00
2022-08-01T06:06:25.312Z,100.00
2022-08-01T06:07:27.349Z,100.00
2022-08-01T06:08:29.555Z,100.00
2022-08-01T06:09:31.874Z,100.00
2022-08-01T06:10:33.765Z,100.00
2022-08-01T06:11:35.802Z,100.00
2022-08-01T06:12:37.939Z,100.00
2022-08-01T06:13:48.320Z,100.00
2022-08-01T06:14:50.580Z,100.00
2022-08-01T06:15:52.290Z,100.00
2022-08-01T06:16:54.070Z,100.00
2022-08-01T06:17:56.482Z,100.00
2022-08-01T06:18:58.135Z,100.00
2022-08-01T06:20:00.456Z,100.00
2022-08-01T06:21:02.103Z,100.00
2022-08-01T06:22:04.256Z,100.00
2022-08-01T06:23:22.464Z,100.00
2022-08-01T06:24:28.201Z,100.00
2022-08-01T06:25:30.406Z,100.00
2022-08-01T06:26:32.292Z,100.00
2022-08-01T06:27:36.407Z,100.00
2022-08-01T06:28:39.465Z,100.00
2022-08-01T06:29:41.182Z,100.00
2022-08-01T06:30:55.403Z,100.00
2022-08-01T06:31:57.057Z,100.00
2022-08-01T06:32:59.624Z,100.00
2022-08-01T06:34:01.407Z,100.00
2022-08-01T06:35:03.398Z,100.00
2022-08-01T06:36:05.166Z,100.00
2022-08-01T06:37:07.038Z,100.00
2022-08-01T06:38:09.504Z,100.00
2022-08-01T06:39:11.134Z,100.00
2022-08-01T06:40:17.188Z,100.00
2022-08-01T06:41:19.205Z,100.00
2022-08-01T06:42:20.870Z,98.79
2022-08-01T06:43:22.643Z,98.64
2022-08-01T06:44:24.289Z,98.05
2022-08-01T06:45:27.847Z,97.67
2022-08-01T06:46:32.555Z,97.50
2022-08-01T06:47:38.281Z,97.42
2022-08-01T06:48:40.366Z,97.22
2022-08-01T06:49:42.112Z,95.75
2022-08-01T06:50:43.766Z,94.93
2022-08-01T06:51:45.506Z,95.28
2022-08-01T06:52:47.231Z,95.16
2022-08-01T06:53:48.866Z,95.57
2022-08-01T06:54:50.793Z,95.46
2022-08-01T06:55:52.430Z,95.15
2022-08-01T06:56:54.052Z,95.73
2022-08-01T06:57:55.693Z,94.04
2022-08-01T06:59:01.753Z,93.63
2022-08-01T07:00:09.693Z,94.03
2022-08-01T07:01:11.477Z,94.54
2022-08-01T07:02:13.189Z,93.74
2022-08-01T07:03:14.938Z,92.57
2022-08-01T07:04:16.577Z,92.83
2022-08-01T07:05:18.530Z,92.72
2022-08-01T07:06:20.269Z,91.88
2022-08-01T07:07:22.004Z,91.16
2022-08-01T07:08:23.865Z,91.41
2022-08-01T07:09:25.665Z,90.98
2022-08-01T07:10:27.368Z,89.31
2022-08-01T07:11:29.005Z,89.11
2022-08-01T07:12:30.661Z,88.27
2022-08-01T07:13:44.076Z,86.93
2022-08-01T07:14:47.166Z,86.92
2022-08-01T07:15:48.806Z,87.70
2022-08-01T07:16:51.304Z,86.18
2022-08-01T07:17:53.261Z,86.31
2022-08-01T07:18:54.945Z,86.60
2022-08-01T07:19:57.808Z,86.29
2022-08-01T07:20:59.649Z,86.83
2022-08-01T07:22:01.322Z,86.86
2022-08-01T07:23:06.095Z,86.52
2022-08-01T07:24:14.486Z,84.19
2022-08-01T07:25:16.866Z,83.68
2022-08-01T07:26:18.541Z,84.12
2022-08-01T07:27:25.540Z,84.01
2022-08-01T07:28:29.343Z,83.60
2022-08-01T07:29:31.017Z,83.90
2022-08-01T07:30:32.672Z,84.34
2022-08-01T07:31:34.337Z,84.50
2022-08-01T07:32:36.062Z,84.02
2022-08-01T07:33:47.787Z,83.51
2022-08-01T07:34:51.220Z,83.16
2022-08-01T07:35:52.934Z,83.93
2022-08-01T07:36:54.649Z,84.49
2022-08-01T07:37:56.315Z,83.47
2022-08-01T07:38:57.978Z,82.02
2022-08-01T07:40:00.108Z,81.93
2022-08-01T07:41:01.823Z,81.33
2022-08-01T07:42:07.331Z,80.84
2022-08-01T07:43:10.157Z,79.27
2022-08-01T07:44:11.810Z,80.42
2022-08-01T07:45:14.185Z,80.70
2022-08-01T07:46:17.170Z,79.86
2022-08-01T07:47:25.264Z,79.59
2022-08-01T07:48:28.030Z,77.73
2022-08-01T07:49:30.032Z,77.40
2022-08-01T07:50:34.165Z,78.09
2022-08-01T07:51:36.010Z,77.28
2022-08-01T07:52:37.710Z,77.03
2022-08-01T07:53:39.428Z,77.52
2022-08-01T07:54:41.086Z,76.26
2022-08-01T07:55:43.302Z,75.66
2022-08-01T07:56:47.741Z,75.27
2022-08-01T07:57:49.593Z,74.38
2022-08-01T07:58:51.459Z,74.30
2022-08-01T07:59:53.305Z,74.46
2022-08-01T08:00:54.982Z,73.30
2022-08-01T08:01:56.755Z,72.81
2022-08-01T08:03:00.276Z,72.75
2022-08-01T08:04:02.228Z,73.04
2022-08-01T08:05:04.843Z,72.99
2022-08-01T08:06:07.383Z,72.91
2022-08-01T08:07:09.475Z,71.15
2022-08-01T08:08:12.444Z,71.20
2022-08-01T08:09:15.678Z,71.03
2022-08-01T08:10:17.504Z,70.02
2022-08-01T08:11:19.140Z,69.39
2022-08-01T08:12:28.477Z,67.95
2022-08-01T08:13:31.598Z,68.31
2022-08-01T08:14:33.432Z,67.07
2022-08-01T08:15:35.236Z,66.85
2022-08-01T08:16:36.941Z,66.25
2022-08-01T08:17:38.683Z,66.23
2022-08-01T08:18:40.421Z,66.80
2022-08-01T08:19:42.121Z,65.22
2022-08-01T08:20:44.714Z,65.89
2022-08-01T08:21:46.434Z,66.98
2022-08-01T08:22:48.098Z,66.25
2022-08-01T08:24:08.092Z,63.13
2022-08-01T08:25:12.525Z,64.92
2022-08-01T08:26:14.164Z,64.62
2022-08-01T08:27:16.171Z,65.11
2022-08-01T08:28:17.967Z,65.45
2022-08-01T08:29:20.175Z,65.75
2022-08-01T08:30:22.000Z,65.99
2022-08-01T08:31:25.621Z,67.07
2022-08-01T08:32:45.964Z,65.82
2022-08-01T08:33:47.606Z,63.42
2022-08-01T08:34:49.282Z,64.22
2022-08-01T08:35:53.652Z,65.10
2022-08-01T08:36:58.866Z,65.33
2022-08-01T08:38:00.839Z,65.78
2022-08-01T08:39:04.333Z,64.43
2022-08-01T08:40:07.447Z,64.04
2022-08-01T08:41:10.628Z,64.94
2022-08-01T08:42:12.913Z,64.00
2022-08-01T08:43:17.225Z,63.12
2022-08-01T08:44:21.068Z,62.58
2022-08-01T08:45:23.162Z,60.90
2022-08-01T08:46:47.562Z,61.21
2022-08-01T08:47:51.030Z,61.73
2022-08-01T08:48:53.469Z,61.34
2022-08-01T08:49:57.493Z,61.93
2022-08-01T08:51:02.353Z,60.76
2022-08-01T08:52:08.899Z,60.83
2022-08-01T08:53:18.363Z,60.69
2022-08-01T08:54:30.851Z,60.26
2022-08-01T08:55:33.143Z,59.72
2022-08-01T08:56:56.102Z,60.36
2022-08-01T08:57:58.834Z,59.39
2022-08-01T08:59:02.125Z,59.76
2022-08-01T09:00:04.652Z,58.87
2022-08-01T09:01:08.061Z,58.25
2022-08-01T09:02:10.799Z,56.00
2022-08-01T09:03:13.290Z,55.73
2022-08-01T09:04:15.513Z,55.60
2022-08-01T09:05:19.833Z,55.19
2022-08-01T09:06:21.753Z,55.11
2022-08-01T09:07:26.333Z,54.55
2022-08-01T09:08:28.045Z,55.43
2022-08-01T09:09:29.723Z,55.91
2022-08-01T09:10:31.401Z,56.50
2022-08-01T09:11:34.901Z,55.98
2022-08-01T09:12:38.562Z,55.56
2022-08-01T09:13:45.279Z,55.87
2022-08-01T09:14:50.647Z,56.63
2022-08-01T09:15:54.974Z,57.14
2022-08-01T09:17:11.799Z,56.27
2022-08-01T09:18:41.516Z,55.14
2022-08-01T09:19:50.255Z,54.06
2022-08-01T09:20:51.970Z,54.20
2022-08-01T09:22:02.719Z,54.37
2022-08-01T09:23:04.742Z,53.16
2022-08-01T09:24:18.715Z,54.36
2022-08-01T09:25:51.529Z,52.83
2022-08-01T09:26:55.129Z,53.17
2022-08-01T09:28:07.281Z,51.96
2022-08-01T09:29:34.702Z,53.02
2022-08-01T09:30:40.782Z,53.28
2022-08-01T09:31:47.713Z,53.59
2022-08-01T09:32:55.845Z,52.19
2022-08-01T09:34:05.067Z,52.37
2022-08-01T09:35:36.241Z,52.87
2022-08-01T09:36:45.746Z,54.23
2022-08-01T09:37:47.542Z,52.87
2022-08-01T09:38:51.550Z,52.28
2022-08-01T09:39:58.421Z,52.61
2022-08-01T09:41:01.873Z,52.50
2022-08-01T09:42:28.343Z,52.03
2022-08-01T09:43:32.759Z,51.97
2022-08-01T09:44:44.757Z,52.42
2022-08-01T09:45:49.132Z,51.10
2022-08-01T09:46:55.044Z,51.61
2022-08-01T09:47:56.815Z,51.83
2022-08-01T09:49:02.271Z,50.96
2022-08-01T09:50:11.235Z,51.06
2022-08-01T09:51:13.971Z,52.57
2022-08-01T09:52:35.630Z,52.66
2022-08-01T09:53:43.452Z,52.35
2022-08-01T09:55:00.690Z,51.20
2022-08-01T09:56:13.520Z,51.23
2022-08-01T09:57:18.899Z,52.16
2022-08-01T09:58:21.614Z,53.41
2022-08-01T09:59:56.748Z,53.07
2022-08-01T10:01:01.155Z,52.84
2022-08-01T10:02:02.825Z,53.11
2022-08-01T10:03:25.399Z,51.93
2022-08-01T10:04:28.505Z,52.33
2022-08-01T10:05:37.158Z,52.03
2022-08-01T10:06:43.563Z,52.12
2022-08-01T10:08:07.943Z,51.56
2022-08-01T10:09:10.291Z,52.04
2022-08-01T10:10:16.054Z,52.95
2022-08-01T10:11:18.723Z,52.30
2022-08-01T10:12:24.658Z,51.61
2022-08-01T10:13:36.571Z,52.68
2022-08-01T10:14:41.007Z,53.45
2022-08-01T10:15:43.551Z,53.31
2022-08-01T10:16:53.621Z,52.21
2022-08-01T10:18:02.170Z,52.24
2022-08-01T10:19:14.567Z,52.24
2022-08-01T10:20:30.512Z,51.18
2022-08-01T10:21:56.713Z,51.61
2022-08-01T10:23:05.844Z,51.40
2022-08-01T10:24:12.105Z,51.72
2022-08-01T10:25:18.800Z,52.13
2022-08-01T10:26:41.953Z,51.37
2022-08-01T10:27:46.484Z,50.53
2022-08-01T10:28:49.844Z,50.11
2022-08-01T10:30:05.140Z,50.66
2022-08-01T10:31:12.582Z,50.66
2022-08-01T10:32:18.289Z,49.11
2022-08-01T10:33:51.200Z,47.20
2022-08-01T10:34:46.480Z,48.04
2022-08-01T10:35:48.635Z,49.49
2022-08-01T10:36:50.636Z,48.92
2022-08-01T10:37:57.487Z,49.15
2022-08-01T10:38:59.560Z,50.31
2022-08-01T10:40:28.695Z,50.26
2022-08-01T10:41:27.394Z,48.69
2022-08-01T10:42:30.322Z,47.98
2022-08-01T10:43:32.213Z,48.65
2022-08-01T10:44:35.022Z,50.21
2022-08-01T10:45:37.037Z,49.28
2022-08-01T10:46:40.722Z,46.54
2022-08-01T10:48:14.270Z,46.06
2022-08-01T10:49:21.274Z,46.55
2022-08-01T10:50:34.695Z,45.76
2022-08-01T10:51:51.267Z,44.54
2022-08-01T10:53:15.256Z,44.62
2022-08-01T10:54:27.836Z,45.85
2022-08-01T10:55:29.603Z,45.77
2022-08-01T10:56:41.715Z,47.40
2022-08-01T10:57:52.639Z,45.52
2022-08-01T10:59:06.088Z,47.11
2022-08-01T11:00:09.339Z,46.38
2022-08-01T11:01:30.450Z,44.93
2022-08-01T11:02:41.658Z,44.66
2022-08-01T11:03:58.369Z,42.94
2022-08-01T11:05:14.332Z,41.76
2022-08-01T11:06:18.611Z,41.77
2022-08-01T11:07:35.564Z,41.56
2022-08-01T11:08:39.241Z,41.44
2022-08-01T11:09:50.849Z,41.56
2022-08-01T11:11:02.228Z,40.95
2022-08-01T11:12:08.170Z,41.74
2022-08-01T11:13:15.479Z,41.73
2022-08-01T11:14:22.677Z,42.05
2022-08-01T11:15:31.499Z,41.98
2022-08-01T11:16:36.366Z,42.34
2022-08-01T11:17:48.466Z,42.57
2022-08-01T11:18:54.191Z,41.55
2022-08-01T11:20:19.266Z,41.76
2022-08-01T11:21:58.918Z,40.54
2022-08-01T11:22:58.527Z,41.93
2022-08-01T11:24:00.227Z,42.62
2022-08-01T11:25:02.260Z,42.32
2022-08-01T11:26:06.040Z,41.51
2022-08-01T11:27:33.553Z,41.65
2022-08-01T11:28:36.856Z,42.82
2022-08-01T11:29:42.229Z,43.01
2022-08-01T11:30:49.450Z,43.20
2022-08-01T11:31:52.739Z,43.15
2022-08-01T11:33:12.809Z,43.44
2022-08-01T11:34:16.107Z,43.66
2022-08-01T11:35:21.699Z,43.91
2022-08-01T11:36:56.760Z,42.59
2022-08-01T11:37:45.616Z,43.66
2022-08-01T11:38:49.581Z,44.89
2022-08-01T11:40:24.981Z,43.15
2022-08-01T11:41:39.038Z,43.45
2022-08-01T11:42:41.079Z,42.20
2022-08-01T11:44:00.715Z,42.11
2022-08-01T11:45:04.302Z,42.19
2022-08-01T11:46:06.823Z,43.03
2022-08-01T11:47:11.662Z,42.99
2022-08-01T11:48:27.582Z,42.51
2022-08-01T11:49:39.330Z,42.57
2022-08-01T11:50:42.177Z,42.50
2022-08-01T11:51:44.349Z,41.32
2022-08-01T11:52:47.129Z,41.56
2022-08-01T11:53:50.408Z,41.54
2022-08-01T11:54:56.966Z,41.52
2022-08-01T11:56:00.702Z,42.54
2022-08-01T11:57:06.156Z,42.94
2022-08-01T11:58:22.549Z,42.25
2022-08-01T11:59:38.025Z,42.45
2022-08-01T12:00:43.962Z,42.76
2022-08-01T12:01:49.098Z,43.45
2022-08-01T12:03:00.213Z,42.74
2022-08-01T12:04:02.210Z,42.09
2022-08-01T12:05:11.878Z,42.18
2022-08-01T12:06:13.994Z,42.05
2022-08-01T12:07:16.368Z,42.45
2022-08-01T12:08:34.198Z,42.46
2022-08-01T12:09:35.831Z,44.26
2022-08-01T12:10:49.409Z,43.73
2022-08-01T12:11:51.698Z,44.83
2022-08-01T12:13:00.780Z,43.31
2022-08-01T12:14:02.657Z,42.73
2022-08-01T12:15:09.898Z,42.83
2022-08-01T12:16:12.308Z,43.22
2022-08-01T12:17:14.140Z,43.49
2022-08-01T12:18:15.949Z,43.21
2022-08-01T12:19:25.594Z,41.60
2022-08-01T12:20:31.204Z,41.58
2022-08-01T12:21:33.480Z,42.92
2022-08-01T12:22:35.361Z,40.63
2022-08-01T12:23:36.989Z,40.34
2022-08-01T12:24:41.926Z,39.94
2022-08-01T12:25:48.266Z,40.09
2022-08-01T12:26:49.938Z,39.50
2022-08-01T12:27:56.000Z,40.97
2022-08-01T12:28:58.368Z,41.33
2022-08-01T12:30:02.254Z,39.95
2022-08-01T12:31:04.089Z,40.61
2022-08-01T12:32:27.962Z,39.29
2022-08-01T12:33:37.214Z,38.01
2022-08-01T12:34:39.064Z,37.52
2022-08-01T12:35:42.617Z,39.31
2022-08-01T12:36:45.071Z,37.36
2022-08-01T12:37:55.573Z,37.37
2022-08-01T12:39:00.275Z,36.31
2022-08-01T12:40:10.493Z,36.53
2022-08-01T12:41:12.663Z,36.49
2022-08-01T12:42:15.709Z,35.98
2022-08-01T12:43:27.907Z,36.41
2022-08-01T12:44:32.058Z,35.81
2022-08-01T12:45:40.671Z,35.99
2022-08-01T12:46:56.591Z,36.69
2022-08-01T12:48:00.567Z,37.29
2022-08-01T12:49:02.693Z,37.13
2022-08-01T12:50:08.645Z,36.58
2022-08-01T12:51:12.626Z,38.02
2022-08-01T12:52:15.912Z,39.55
2022-08-01T12:53:19.701Z,38.45
2022-08-01T12:54:25.781Z,35.67
2022-08-01T12:55:34.385Z,35.86
2022-08-01T12:56:37.072Z,35.66
2022-08-01T12:57:42.722Z,34.78
2022-08-01T12:58:44.472Z,34.91
2022-08-01T12:59:46.289Z,36.01
2022-08-01T13:01:02.679Z,34.21
2022-08-01T13:02:09.840Z,32.85
2022-08-01T13:03:18.006Z,34.06
2022-08-01T13:04:20.855Z,32.52
2022-08-01T13:05:25.859Z,33.08
2022-08-01T13:06:31.433Z,33.83
2022-08-01T13:07:45.607Z,33.46
2022-08-01T13:08:47.645Z,33.21
2022-08-01T13:09:53.008Z,33.11
2022-08-01T13:11:03.097Z,33.35
2022-08-01T13:12:11.132Z,34.10
2022-08-01T13:13:22.155Z,34.22
2022-08-01T13:14:30.692Z,34.62
2022-08-01T13:15:35.853Z,34.97
2022-08-01T13:16:56.710Z,35.81
2022-08-01T13:18:01.562Z,36.46
2022-08-01T13:19:03.330Z,35.94
2022-08-01T13:20:06.224Z,36.41
2022-08-01T13:21:12.023Z,37.04
2022-08-01T13:22:13.729Z,37.89
2022-08-01T13:23:22.736Z,39.04
2022-08-01T13:24:40.196Z,38.67
2022-08-01T13:26:08.542Z,38.34
2022-08-01T13:27:24.805Z,38.84
2022-08-01T13:28:28.309Z,39.49
2022-08-01T13:29:33.752Z,40.09
2022-08-01T13:30:35.450Z,40.98
2022-08-01T13:31:39.097Z,40.72
2022-08-01T13:32:41.071Z,41.02
2022-08-01T13:33:54.051Z,40.55
2022-08-01T13:35:03.958Z,40.65
2022-08-01T13:36:05.844Z,42.06
2022-08-01T13:37:07.514Z,42.10
2022-08-01T13:38:09.355Z,42.12
2022-08-01T13:39:29.702Z,42.36
2022-08-01T13:40:31.574Z,43.72
2022-08-01T13:41:35.410Z,43.23
2022-08-01T13:42:38.556Z,42.89
2022-08-01T13:43:58.979Z,42.62
2022-08-01T13:45:03.694Z,42.76
2022-08-01T13:46:05.580Z,41.94
2022-08-01T13:47:15.139Z,42.52
2022-08-01T13:48:19.778Z,42.66
2022-08-01T13:49:22.881Z,42.75
2022-08-01T13:50:24.799Z,43.52
2022-08-01T13:51:26.480Z,43.81
2022-08-01T13:52:28.266Z,43.18
2022-08-01T13:53:30.040Z,43.92
2022-08-01T13:54:32.644Z,42.72
2022-08-01T13:55:35.521Z,41.81
2022-08-01T13:56:37.456Z,41.42
2022-08-01T13:57:39.229Z,41.07